Time;durP1;ratioP1;P1;durP2;ratioP2;P2;SDS_P1;SDS_P2;PMS_P1;PMS_P2;Temp;Humidity;BMP_temperature;BMP_pressure;BME280_temperature;BME280_humidity;BME280_pressure;Samples;Min_cycle;Max_cycle;Signal;HPM_P1;HPM_P2
2021/06/19 00:02:22;;;;;;;1.00;0.80;;;;;;;31.49;37.64;101028.81;5056252;28;20032;-59
2021/06/19 00:04:48;;;;;;;0.73;0.65;;;;;;;31.42;37.55;101031.75;5056206;28;20112;-59
2021/06/19 00:07:13;;;;;;;2.22;0.70;;;;;;;31.38;37.59;101024.25;5056237;28;20033;-59
2021/06/19 00:09:39;;;;;;;2.25;0.55;;;;;;;31.31;37.53;101024.44;5055879;28;20075;-59
2021/06/19 00:12:05;;;;;;;0.55;0.50;;;;;;;31.26;37.86;101026.34;5055942;28;20032;-59
2021/06/19 00:14:30;;;;;;;1.15;0.32;;;;;;;31.21;37.60;101035.44;5055709;28;20017;-60
2021/06/19 00:16:56;;;;;;;2.05;0.43;;;;;;;31.13;37.98;101022.88;5056284;28;20032;-59
2021/06/19 00:19:21;;;;;;;1.08;0.40;;;;;;;31.13;37.79;101030.31;5055859;28;20029;-59
2021/06/19 00:21:47;;;;;;;1.85;0.38;;;;;;;31.10;38.05;101028.91;5037520;28;20040;-59
2021/06/19 00:24:18;;;;;;;0.70;0.52;;;;;;;31.09;38.03;101041.09;5055169;28;20031;-60
2021/06/19 00:26:44;;;;;;;0.53;0.53;;;;;;;31.11;38.13;101040.84;5055821;28;20031;-59
2021/06/19 00:29:09;;;;;;;0.50;0.50;;;;;;;31.12;37.76;101036.97;5055485;28;20266;-60
2021/06/19 00:31:34;;;;;;;0.93;0.40;;;;;;;31.09;37.73;101040.25;5055758;28;20116;-59
2021/06/19 00:34:00;;;;;;;1.00;0.52;;;;;;;31.07;38.13;101034.16;5055677;28;20052;-60
2021/06/19 00:36:25;;;;;;;1.13;0.50;;;;;;;31.04;38.23;101046.59;5037479;28;20033;-59
2021/06/19 00:38:51;;;;;;;0.60;0.60;;;;;;;31.01;38.01;101049.03;5055609;28;20116;-59
2021/06/19 00:41:16;;;;;;;0.77;0.45;;;;;;;30.99;38.08;101049.28;5037426;28;20033;-59
2021/06/19 00:43:41;;;;;;;1.92;0.52;;;;;;;30.97;38.48;101050.63;5055476;28;20036;-60
2021/06/19 00:46:07;;;;;;;1.75;0.60;;;;;;;30.92;38.65;101045.00;5055691;28;20037;-59
2021/06/19 00:48:32;;;;;;;0.40;0.40;;;;;;;30.88;38.30;101038.28;5055493;28;20044;-59
2021/06/19 00:50:58;;;;;;;1.65;0.60;;;;;;;30.85;38.23;101044.38;5055359;28;20025;-59
2021/06/19 00:53:23;;;;;;;3.50;0.88;;;;;;;30.82;38.23;101040.16;5055529;28;20033;-59
2021/06/19 00:55:50;;;;;;;0.47;0.47;;;;;;;30.78;38.02;101041.78;5055502;28;20031;-59
2021/06/19 00:58:15;;;;;;;0.95;0.60;;;;;;;30.74;38.47;101051.69;5037147;28;20029;-60
2021/06/19 01:00:40;;;;;;;0.73;0.70;;;;;;;30.70;38.78;101056.06;5054847;28;20043;-59
2021/06/19 01:03:06;;;;;;;0.70;0.35;;;;;;;30.67;39.02;101050.22;5037006;28;20041;-60
2021/06/19 01:05:31;;;;;;;0.95;0.60;;;;;;;30.62;38.60;101059.28;5055105;28;20385;-60
2021/06/19 01:07:59;;;;;;;0.60;0.60;;;;;;;30.58;38.81;101050.66;5054747;28;20029;-59
2021/06/19 01:10:25;;;;;;;2.60;0.60;;;;;;;30.53;38.86;101050.59;5054858;28;20053;-59
2021/06/19 01:12:50;;;;;;;1.63;0.52;;;;;;;30.49;38.90;101049.41;5054665;28;20025;-60
2021/06/19 01:15:16;;;;;;;4.22;0.82;;;;;;;30.46;39.00;101049.06;5037103;28;20037;-60
2021/06/19 01:17:42;;;;;;;0.50;0.50;;;;;;;30.43;39.21;101044.91;5036740;28;20029;-59
2021/06/19 01:20:11;;;;;;;2.15;0.60;;;;;;;30.36;38.97;101049.75;5054411;28;20082;-59
2021/06/19 01:22:38;;;;;;;1.10;0.47;;;;;;;30.32;39.59;101037.50;5054411;28;20021;-60
2021/06/19 01:25:06;;;;;;;0.30;0.30;;;;;;;30.30;39.18;101045.22;5054469;28;20103;-59
2021/06/19 01:27:32;;;;;;;1.52;0.90;;;;;;;30.27;39.82;101044.91;5054656;28;20021;-59
2021/06/19 01:29:58;;;;;;;1.05;0.60;;;;;;;30.27;39.91;101045.72;5054607;28;20462;-59
2021/06/19 01:32:29;;;;;;;0.80;0.50;;;;;;;30.26;39.45;101037.72;5054617;28;20025;-59
2021/06/19 01:34:54;;;;;;;0.45;0.43;;;;;;;30.20;39.46;101039.56;5036246;28;20066;-60
2021/06/19 01:37:20;;;;;;;0.90;0.63;;;;;;;30.22;39.28;101042.06;5054301;28;20108;-59
2021/06/19 01:39:45;;;;;;;2.35;0.65;;;;;;;30.19;40.20;101037.88;5054724;28;20202;-59
2021/06/19 01:42:10;;;;;;;1.38;0.60;;;;;;;30.15;39.52;101039.47;5054373;28;20043;-59
2021/06/19 01:44:36;;;;;;;1.33;0.47;;;;;;;30.12;39.71;101036.38;5054084;28;20553;-59
2021/06/19 01:47:01;;;;;;;0.57;0.47;;;;;;;30.10;40.06;101050.44;5054006;28;20028;-59
2021/06/19 01:49:34;;;;;;;0.50;0.50;;;;;;;30.02;39.67;101042.56;5053865;28;20393;-59
2021/06/19 01:51:59;;;;;;;;;;;;;;;30.04;40.22;101045.91;5036887;28;20032;-60
2021/06/19 01:54:24;;;;;;;0.70;0.70;;;;;;;30.00;39.81;101050.28;5054198;28;20353;-59
2021/06/19 01:56:50;;;;;;;0.45;0.40;;;;;;;29.98;39.85;101044.19;5054363;28;20454;-60
2021/06/19 01:59:15;;;;;;;0.63;0.63;;;;;;;29.96;40.32;101049.94;5053809;28;20056;-59
2021/06/19 02:01:43;;;;;;;2.55;0.50;;;;;;;29.91;40.91;101040.75;5053704;28;20079;-59
2021/06/19 02:04:08;;;;;;;4.22;0.68;;;;;;;29.83;40.29;101042.00;5053740;28;20029;-59
2021/06/19 02:06:34;;;;;;;2.53;0.70;;;;;;;29.84;40.12;101048.38;5053722;28;20029;-59
2021/06/19 02:09:09;;;;;;;1.13;0.50;;;;;;;29.77;40.44;101053.16;5053938;28;20477;-60
2021/06/19 02:11:35;;;;;;;2.10;0.60;;;;;;;29.73;41.38;101049.25;5053613;28;20099;-59
2021/06/19 02:14:04;;;;;;;0.50;0.50;;;;;;;29.71;40.68;101059.69;5035751;28;20045;-59
2021/06/19 02:16:30;;;;;;;1.48;0.75;;;;;;;29.66;41.33;101051.31;5053823;28;20381;-59
2021/06/19 02:18:55;;;;;;;0.63;0.60;;;;;;;29.66;41.06;101054.91;5053779;28;20041;-59
2021/06/19 02:21:21;;;;;;;1.17;0.60;;;;;;;29.61;40.53;101057.59;5035763;28;20029;-59
2021/06/19 02:23:46;;;;;;;0.65;0.32;;;;;;;29.58;41.66;101058.09;5053966;28;20056;-59
2021/06/19 02:26:11;;;;;;;1.95;0.70;;;;;;;29.56;40.85;101067.72;5053498;28;20028;-59
2021/06/19 02:28:37;;;;;;;2.10;0.70;;;;;;;29.53;40.63;101055.25;5035522;28;20072;-60
2021/06/19 02:31:02;;;;;;;3.28;0.70;;;;;;;29.50;40.60;101066.78;5053610;28;20096;-60
2021/06/19 02:33:28;;;;;;;0.50;0.50;;;;;;;29.50;41.25;101066.78;5035552;28;20112;-59
2021/06/19 02:35:53;;;;;;;2.63;0.70;;;;;;;29.49;40.74;101058.72;5054106;28;20090;-60
2021/06/19 02:38:20;;;;;;;1.42;0.63;;;;;;;29.43;40.92;101061.41;5035475;28;20024;-60
2021/06/19 02:40:47;;;;;;;1.20;0.40;;;;;;;29.47;41.65;101067.28;5053199;28;20033;-60
2021/06/19 02:43:13;;;;;;;0.57;0.43;;;;;;;29.43;40.97;101061.41;5053216;28;20021;-59
2021/06/19 02:45:39;;;;;;;4.50;0.68;;;;;;;29.38;41.40;101055.78;5051697;28;20064;-59
2021/06/19 02:48:05;;;;;;;3.33;0.60;;;;;;;29.37;40.95;101073.44;5035591;28;20075;-59
2021/06/19 02:50:32;;;;;;;1.13;0.65;;;;;;;29.34;41.94;101060.13;5053404;28;20086;-59
2021/06/19 02:53:00;;;;;;;1.00;0.50;;;;;;;29.30;41.21;101056.19;5035307;28;20481;-60
2021/06/19 02:55:28;;;;;;;4.15;0.40;;;;;;;29.26;41.22;101049.47;5036096;28;20032;-60
2021/06/19 02:57:54;;;;;;;2.53;0.60;;;;;;;29.22;42.32;101058.50;5053339;28;20025;-59
2021/06/19 03:00:21;;;;;;;2.10;0.50;;;;;;;29.19;41.72;101053.44;5035189;28;20366;-59
2021/06/19 03:02:47;;;;;;;0.82;0.50;;;;;;;29.18;41.43;101063.63;5035116;28;20036;-59
2021/06/19 03:05:16;;;;;;;0.75;0.73;;;;;;;29.15;41.97;101064.13;5052980;28;20482;-59
2021/06/19 03:07:41;;;;;;;0.43;0.43;;;;;;;29.11;41.74;101062.97;5035450;28;20029;-58
2021/06/19 03:10:09;;;;;;;0.60;0.60;;;;;;;29.07;41.95;101061.75;5052841;28;20079;-59
2021/06/19 03:12:35;;;;;;;1.67;0.60;;;;;;;29.04;41.36;101056.72;5053927;28;20087;-59
2021/06/19 03:15:01;;;;;;;1.23;0.50;;;;;;;29.03;42.64;101059.75;5052851;28;20025;-59
2021/06/19 03:17:26;;;;;;;0.70;0.50;;;;;;;29.00;42.03;101063.00;5035541;28;20485;-60
2021/06/19 03:19:51;;;;;;;0.43;0.22;;;;;;;28.96;41.59;101065.41;5034834;28;20032;-60
2021/06/19 03:22:17;;;;;;;0.55;0.55;;;;;;;28.92;42.36;101078.00;5052770;28;20029;-59
2021/06/19 03:24:43;;;;;;;2.65;0.50;;;;;;;28.88;42.00;101085.09;5053381;28;20040;-60
2021/06/19 03:27:11;;;;;;;0.50;0.50;;;;;;;28.86;42.86;101090.03;5053072;28;20086;-59
2021/06/19 03:29:36;;;;;;;0.52;0.50;;;;;;;28.83;42.98;101087.75;5053092;28;20039;-60
2021/06/19 03:32:02;;;;;;;1.13;0.60;;;;;;;28.80;41.84;101090.97;5052745;28;20029;-60
2021/06/19 03:34:28;;;;;;;0.75;0.63;;;;;;;28.77;42.45;101099.75;5035242;28;20028;-59
2021/06/19 03:37:01;;;;;;;0.57;0.57;;;;;;;28.74;42.63;101116.78;5053026;28;20029;-60
2021/06/19 03:39:33;;;;;;;4.05;0.60;;;;;;;28.72;42.98;101114.25;5052647;28;20397;-59
2021/06/19 03:41:59;;;;;;;1.00;0.80;;;;;;;28.70;42.48;101104.56;5052675;28;20048;-60
2021/06/19 03:44:25;;;;;;;0.52;0.52;;;;;;;28.67;42.63;101105.03;5034915;28;20036;-58
2021/06/19 03:46:52;;;;;;;2.78;1.13;;;;;;;28.66;43.19;101108.88;5053560;28;20377;-59
2021/06/19 03:49:18;;;;;;;0.73;0.70;;;;;;;28.60;43.12;101115.31;5052958;28;20428;-60
2021/06/19 03:51:45;;;;;;;0.82;0.75;;;;;;;28.60;43.37;101104.28;5035173;28;20021;-58
2021/06/19 03:54:10;;;;;;;0.95;0.95;;;;;;;28.58;43.32;101101.78;5052808;28;20037;-59
2021/06/19 03:56:36;;;;;;;1.95;0.80;;;;;;;28.55;42.47;101109.69;5052551;28;20029;-59
2021/06/19 03:59:01;;;;;;;0.95;0.85;;;;;;;28.50;42.65;101106.81;5055381;28;20025;-60
2021/06/19 04:01:26;;;;;;;4.80;0.85;;;;;;;28.49;43.14;101107.88;5056023;28;20060;-60
2021/06/19 04:03:52;;;;;;;1.70;0.82;;;;;;;28.49;42.39;101118.91;5056021;28;20393;-60
2021/06/19 04:06:17;;;;;;;0.85;0.85;;;;;;;28.47;42.26;101115.56;5056225;28;20382;-59
2021/06/19 04:08:43;;;;;;;3.40;2.10;;;;;;;28.35;43.36;101106.44;5038445;28;20112;-59
2021/06/19 04:11:08;;;;;;;2.00;1.20;;;;;;;28.45;43.50;101128.75;5055790;28;20048;-59
2021/06/19 04:13:33;;;;;;;0.75;0.75;;;;;;;28.45;42.85;101120.47;5056083;28;20032;-60
2021/06/19 04:15:59;;;;;;;3.03;1.10;;;;;;;28.44;43.57;101127.06;5055802;28;20033;-60
2021/06/19 04:18:24;;;;;;;1.20;1.08;;;;;;;28.44;43.17;101118.78;5038187;28;20053;-60
2021/06/19 04:20:50;;;;;;;1.45;1.02;;;;;;;28.49;42.79;101127.19;5055884;28;20029;-59
2021/06/19 04:23:15;;;;;;;1.45;0.90;;;;;;;28.50;42.93;101128.88;5055678;28;20025;-59
2021/06/19 04:25:40;;;;;;;1.92;0.85;;;;;;;28.56;43.18;101136.19;5055663;28;20112;-59
2021/06/19 04:28:06;;;;;;;1.40;1.00;;;;;;;28.63;42.37;101147.94;5055842;28;20416;-59
2021/06/19 04:30:32;;;;;;;1.80;1.25;;;;;;;28.62;43.06;101140.72;5037719;28;20025;-60
2021/06/19 04:32:57;;;;;;;1.27;0.80;;;;;;;28.69;43.41;101155.28;5055701;28;20033;-59
2021/06/19 04:35:24;;;;;;;1.17;1.08;;;;;;;28.70;42.90;101159.72;5055452;28;20106;-58
2021/06/19 04:37:50;;;;;;;1.80;1.30;;;;;;;28.70;43.46;101166.03;5055654;28;20043;-59
2021/06/19 04:40:44;;;;;;;1.55;1.08;;;;;;;28.70;42.88;101166.03;5037502;28;20029;-59
2021/06/19 04:43:06;;;;;;;1.00;0.90;;;;;;;28.77;43.11;101163.19;5054744;28;20041;-59
2021/06/19 04:45:31;;;;;;;2.63;1.00;;;;;;;28.85;42.27;101173.84;5055214;28;20029;-59
2021/06/19 04:47:59;;;;;;;1.10;0.95;;;;;;;28.91;42.04;101167.38;5055633;28;20043;-59
2021/06/19 04:50:24;;;;;;;3.13;1.52;;;;;;;28.98;42.79;101164.50;5037685;28;20025;-59
2021/06/19 04:52:50;;;;;;;1.98;1.05;;;;;;;29.06;42.37;101173.25;5054977;28;20039;-59
2021/06/19 04:55:17;;;;;;;2.75;1.88;;;;;;;29.14;42.10;101169.25;5054115;28;20037;-59
2021/06/19 04:57:43;;;;;;;1.15;1.13;;;;;;;29.26;41.54;101179.22;5055311;28;20025;-60
2021/06/19 05:00:11;;;;;;;1.23;0.88;;;;;;;29.35;41.78;101186.03;5054875;28;20033;-59
2021/06/19 05:02:36;;;;;;;0.55;0.55;;;;;;;29.44;41.63;101184.56;5037080;28;20385;-60
2021/06/19 05:05:02;;;;;;;1.05;0.90;;;;;;;29.54;42.38;101191.41;5055087;28;20086;-59
2021/06/19 05:07:27;;;;;;;0.63;0.63;;;;;;;29.63;41.39;101192.66;5055107;28;20106;-60
2021/06/19 05:09:53;;;;;;;1.08;0.77;;;;;;;29.74;41.27;101194.53;5054393;28;20136;-59
2021/06/19 05:12:18;;;;;;;0.73;0.73;;;;;;;29.77;40.98;101183.00;5054706;28;20033;-59
2021/06/19 05:14:43;;;;;;;2.83;1.20;;;;;;;29.96;41.57;101198.31;5054945;28;20033;-59
2021/06/19 05:17:09;;;;;;;1.58;1.48;;;;;;;30.03;41.70;101193.50;5054929;28;20029;-59
2021/06/19 05:19:34;;;;;;;0.93;0.88;;;;;;;30.13;41.54;101199.19;5054490;28;20057;-59
2021/06/19 05:21:59;;;;;;;1.08;0.85;;;;;;;30.23;41.51;101204.94;5037038;28;20470;-59
2021/06/19 05:24:25;;;;;;;0.80;0.80;;;;;;;30.32;40.41;101206.16;5054789;28;20104;-59
2021/06/19 05:26:51;;;;;;;1.70;1.05;;;;;;;30.44;41.00;101201.44;5054726;28;20024;-59
2021/06/19 05:29:16;;;;;;;2.97;1.10;;;;;;;30.51;40.72;101207.63;5054662;28;20040;-59
2021/06/19 05:31:42;;;;;;;1.45;1.15;;;;;;;30.61;40.25;101206.13;5054312;28;20055;-60
2021/06/19 05:34:07;;;;;;;1.02;0.90;;;;;;;30.72;40.43;101211.59;5054560;28;20039;-59
2021/06/19 05:36:32;;;;;;;1.52;1.15;;;;;;;30.85;40.10;101213.19;5054593;28;20535;-59
2021/06/19 05:38:58;;;;;;;0.90;0.82;;;;;;;30.98;40.19;101208.16;5054443;28;20334;-60
2021/06/19 05:41:23;;;;;;;2.10;1.23;;;;;;;31.12;39.67;101214.16;5054348;28;20021;-59
2021/06/19 05:43:49;;;;;;;1.30;0.90;;;;;;;31.23;39.27;101209.59;5054388;28;20029;-59
2021/06/19 05:46:14;;;;;;;0.82;0.70;;;;;;;31.35;39.32;101213.91;5054206;28;20071;-60
2021/06/19 05:48:39;;;;;;;1.75;1.02;;;;;;;31.46;39.01;101209.34;5036200;28;20045;-60
2021/06/19 05:51:05;;;;;;;1.67;1.10;;;;;;;31.57;39.20;101206.50;5053943;28;20469;-59
2021/06/19 05:53:30;;;;;;;2.17;0.93;;;;;;;31.76;39.21;101208.91;5053938;28;20538;-60
2021/06/19 05:55:55;;;;;;;1.38;1.05;;;;;;;31.88;38.66;101223.47;5053902;28;20021;-59
2021/06/19 05:58:21;;;;;;;0.60;0.60;;;;;;;31.99;38.69;101219.72;5053844;28;20037;-60
2021/06/19 06:00:46;;;;;;;2.97;0.98;;;;;;;32.03;38.53;101227.25;5053919;28;20080;-59
2021/06/19 06:03:12;;;;;;;1.08;0.98;;;;;;;32.11;38.71;101224.03;5053661;28;20029;-59
2021/06/19 06:05:37;;;;;;;2.00;0.70;;;;;;;32.22;38.34;101219.41;5053874;28;20082;-59
2021/06/19 06:08:03;;;;;;;1.20;0.80;;;;;;;32.39;37.65;101224.84;5035767;28;20025;-59
2021/06/19 06:10:28;;;;;;;0.80;0.55;;;;;;;32.32;38.56;101230.63;5035639;28;20077;-60
2021/06/19 06:12:55;;;;;;;0.80;0.77;;;;;;;32.45;37.73;101232.94;5053548;28;20039;-59
2021/06/19 06:15:20;;;;;;;1.33;0.98;;;;;;;32.58;37.74;101234.50;5036035;28;20037;-59
2021/06/19 06:17:47;;;;;;;4.10;1.00;;;;;;;32.57;37.92;101221.72;5054058;28;20094;-59
2021/06/19 06:20:13;;;;;;;0.88;0.70;;;;;;;32.73;37.16;101221.56;5035381;28;20111;-60
2021/06/19 06:22:38;;;;;;;1.95;0.90;;;;;;;32.94;37.96;101227.28;5035934;28;20092;-60
2021/06/19 06:25:04;;;;;;;3.53;1.30;;;;;;;33.14;37.45;101221.88;5053833;28;20382;-60
2021/06/19 06:27:29;;;;;;;1.02;0.75;;;;;;;33.32;36.44;101224.19;5053694;28;20033;-60
2021/06/19 06:29:55;;;;;;;1.02;0.90;;;;;;;33.49;36.41;101224.84;5053606;28;20102;-60
2021/06/19 06:32:20;;;;;;;1.67;0.80;;;;;;;33.70;36.19;101236.88;5053310;28;20036;-60
2021/06/19 06:34:46;;;;;;;1.08;0.93;;;;;;;33.74;36.61;101238.88;5053859;28;20029;-60
2021/06/19 06:37:11;;;;;;;1.45;1.00;;;;;;;33.59;36.34;101246.28;5053548;28;20430;-59
2021/06/19 06:39:36;;;;;;;3.05;1.08;;;;;;;33.38;36.59;101250.91;5053192;28;20040;-60
2021/06/19 06:42:02;;;;;;;1.15;0.98;;;;;;;33.28;36.56;101257.22;5035671;28;20025;-59
2021/06/19 06:44:29;;;;;;;0.77;0.75;;;;;;;33.48;36.38;101245.38;5053187;28;20032;-60
2021/06/19 06:46:55;;;;;;;1.00;0.90;;;;;;;33.56;35.33;101252.38;5054167;28;20424;-59
2021/06/19 06:49:20;;;;;;;1.55;1.20;;;;;;;33.70;35.27;101254.41;5053793;28;20112;-59
2021/06/19 06:51:45;;;;;;;2.92;1.08;;;;;;;33.89;35.13;101247.25;5053379;28;20115;-60
2021/06/19 06:54:11;;;;;;;1.35;1.00;;;;;;;34.06;35.27;101246.19;5053354;28;20037;-60
2021/06/19 06:56:36;;;;;;;2.33;1.20;;;;;;;34.15;34.80;101236.22;5053102;28;20428;-60
2021/06/19 06:59:02;;;;;;;2.47;1.20;;;;;;;34.23;35.67;101235.69;5053307;28;20100;-60
2021/06/19 07:01:28;;;;;;;1.60;0.95;;;;;;;34.31;35.27;101240.72;5053236;28;20082;-60
2021/06/19 07:03:57;;;;;;;1.45;1.00;;;;;;;34.41;34.42;101237.94;5035554;28;20021;-60
2021/06/19 07:06:23;;;;;;;1.33;1.20;;;;;;;34.49;35.41;101234.59;5053241;28;20029;-60
2021/06/19 07:08:48;;;;;;;1.58;1.00;;;;;;;34.57;34.29;101236.84;5053305;28;20479;-61
2021/06/19 07:11:14;;;;;;;3.25;1.10;;;;;;;34.67;34.62;101236.88;5052918;28;20053;-61
2021/06/19 07:13:39;;;;;;;3.25;1.38;;;;;;;34.80;33.83;101233.50;5053016;28;20082;-60
2021/06/19 07:16:05;;;;;;;5.05;1.10;;;;;;;34.91;33.72;101232.38;5053408;28;20082;-60
2021/06/19 07:18:30;;;;;;;2.80;1.05;;;;;;;35.04;34.51;101234.56;5053152;28;20048;-60
2021/06/19 07:20:56;;;;;;;1.25;0.90;;;;;;;35.15;33.52;101231.81;5052563;28;20056;-59
2021/06/19 07:23:23;;;;;;;1.23;0.90;;;;;;;35.24;34.11;101225.34;5052801;28;20025;-59
2021/06/19 07:25:48;;;;;;;1.38;1.17;;;;;;;35.40;33.68;101224.19;5035354;28;20017;-59
2021/06/19 07:28:13;;;;;;;2.05;1.00;;;;;;;35.57;33.15;101227.50;5053176;28;20576;-59
2021/06/19 07:30:39;;;;;;;1.77;1.30;;;;;;;35.69;33.19;101216.00;5052962;28;20025;-59
2021/06/19 07:33:04;;;;;;;1.30;1.20;;;;;;;35.81;32.84;101224.88;5056102;28;20029;-60
2021/06/19 07:35:29;;;;;;;1.02;0.93;;;;;;;35.93;32.58;101228.16;5038789;28;20033;-59
2021/06/19 07:37:56;;;;;;;3.17;1.25;;;;;;;36.07;32.63;101223.63;5056953;28;20067;-60
2021/06/19 07:40:22;;;;;;;1.63;1.15;;;;;;;36.18;32.41;101218.84;5039182;28;20454;-60
2021/06/19 07:42:47;;;;;;;2.30;1.00;;;;;;;36.31;32.38;101231.28;5056557;28;20025;-60
2021/06/19 07:45:13;;;;;;;1.33;1.05;;;;;;;36.40;32.34;101227.59;5056748;28;20473;-60
2021/06/19 07:47:39;;;;;;;0.82;0.82;;;;;;;36.47;32.21;101218.88;5056344;28;20075;-60
2021/06/19 07:50:05;;;;;;;1.85;1.48;;;;;;;36.52;31.39;101230.03;5056732;28;20025;-59
2021/06/19 07:52:31;;;;;;;5.45;1.27;;;;;;;36.52;32.28;101218.84;5056976;28;20048;-59
2021/06/19 07:54:56;;;;;;;4.25;1.13;;;;;;;36.61;32.03;101222.69;5056641;28;20025;-59
2021/06/19 07:57:22;;;;;;;1.77;1.10;;;;;;;36.59;31.76;101222.16;5056533;28;20033;-59
2021/06/19 07:59:47;;;;;;;1.58;0.93;;;;;;;36.56;31.85;101228.31;5056445;28;20033;-59
2021/06/19 08:02:13;;;;;;;3.45;1.25;;;;;;;36.57;31.40;101228.06;5056709;28;20063;-60
2021/06/19 08:04:38;;;;;;;1.00;1.00;;;;;;;36.69;31.85;101228.47;5020287;28;20103;-59
2021/06/19 08:07:04;;;;;;;1.63;1.00;;;;;;;36.87;31.07;101220.50;5018805;28;20100;-60
2021/06/19 08:09:30;;;;;;;0.82;0.82;;;;;;;37.07;31.73;101232.34;5034711;28;20036;-60
2021/06/19 08:11:56;;;;;;;2.72;0.90;;;;;;;37.25;31.24;101244.72;5035862;28;20418;-61
2021/06/19 08:14:22;;;;;;;1.77;1.02;;;;;;;37.22;31.35;101243.34;5036507;28;20037;-59
2021/06/19 08:17:02;;;;;;;4.15;1.10;;;;;;;37.38;31.22;101237.59;5035871;28;20071;-59
2021/06/19 08:19:28;;;;;;;1.00;0.80;;;;;;;37.54;30.77;101239.94;5036124;28;20033;-59
2021/06/19 08:21:53;;;;;;;0.63;0.63;;;;;;;37.61;31.11;101242.34;5048496;28;20112;-60
2021/06/19 08:24:18;;;;;;;6.90;1.10;;;;;;;37.61;30.47;101243.19;5055906;28;20079;-60
2021/06/19 08:26:44;;;;;;;5.10;1.05;;;;;;;37.69;30.98;101238.91;5056046;28;20462;-61
2021/06/19 08:29:09;;;;;;;5.35;1.00;;;;;;;37.70;30.16;101240.56;5037950;28;20032;-59
2021/06/19 08:31:36;;;;;;;2.90;1.00;;;;;;;37.68;30.13;101240.03;5055933;28;20036;-60
2021/06/19 08:34:02;;;;;;;1.77;1.10;;;;;;;37.73;30.17;101239.97;5056132;28;20079;-60
2021/06/19 08:36:28;;;;;;;3.40;1.27;;;;;;;37.81;29.80;101239.28;5055882;28;20166;-59
2021/06/19 08:38:53;;;;;;;2.10;1.17;;;;;;;37.90;30.49;101226.34;5054885;28;20465;-60
2021/06/19 08:41:19;;;;;;;3.08;1.00;;;;;;;37.98;30.21;101220.06;5055939;28;20036;-60
2021/06/19 08:43:44;;;;;;;3.35;1.15;;;;;;;38.13;29.73;101219.84;5020250;28;20100;-60
2021/06/19 08:46:10;;;;;;;2.75;1.13;;;;;;;38.33;30.19;101216.72;5055367;28;20111;-60
2021/06/19 08:48:38;;;;;;;1.60;1.10;;;;;;;38.41;29.40;101207.66;5037448;28;20036;-59
2021/06/19 08:51:05;;;;;;;1.40;0.88;;;;;;;38.54;29.17;101202.38;5055082;28;20056;-59
2021/06/19 08:53:31;;;;;;;0.90;0.82;;;;;;;38.66;30.27;101205.53;5055531;28;20473;-59
2021/06/19 08:55:57;;;;;;;3.25;0.82;;;;;;;38.86;29.10;101199.59;5055574;28;20068;-60
2021/06/19 08:58:22;;;;;;;1.20;0.98;;;;;;;38.98;29.54;101203.56;5037620;28;20036;-59
2021/06/19 09:00:48;;;;;;;0.70;0.70;;;;;;;39.10;28.97;101197.44;5055345;28;20456;-59
2021/06/19 09:03:24;;;;;;;2.90;1.50;;;;;;;39.23;28.40;101190.19;5055316;28;20036;-60
2021/06/19 09:06:11;;;;;;;0.80;0.80;;;;;;;39.32;28.62;101183.56;5055001;28;20063;-59
2021/06/19 09:09:08;;;;;;;2.85;0.80;;;;;;;39.49;28.56;101186.56;5054685;28;20101;-60
2021/06/19 09:11:47;;;;;;;0.98;0.98;;;;;;;39.66;29.18;101187.91;5054880;28;20124;-59
2021/06/19 09:14:14;;;;;;;3.78;1.00;;;;;;;39.80;28.70;101183.09;5037035;28;20028;-59
2021/06/19 09:16:42;;;;;;;0.98;0.65;;;;;;;39.93;28.37;101183.06;5053941;28;20028;-59
2021/06/19 09:19:25;;;;;;;1.65;1.20;;;;;;;40.02;28.76;101185.94;5055290;28;20052;-60
2021/06/19 09:22:18;;;;;;;1.35;0.88;;;;;;;39.99;27.70;101183.75;5055026;28;20032;-59
2021/06/19 09:24:52;;;;;;;1.63;1.02;;;;;;;40.04;28.69;101178.03;5054903;28;20115;-59
2021/06/19 09:27:42;;;;;;;1.15;0.80;;;;;;;40.13;28.08;101187.38;5054504;28;20039;-60
2021/06/19 09:30:11;;;;;;;1.08;0.98;;;;;;;40.04;27.27;101181.66;5036623;28;20021;-60
2021/06/19 09:32:41;;;;;;;0.93;0.93;;;;;;;40.07;27.68;101183.03;5054461;28;20362;-60
2021/06/19 09:35:13;;;;;;;1.98;0.82;;;;;;;40.14;27.98;101186.25;5036671;28;20059;-60
2021/06/19 09:37:41;;;;;;;1.08;0.80;;;;;;;40.29;28.23;101188.66;5055238;28;20089;-60
2021/06/19 09:40:37;;;;;;;3.10;1.10;;;;;;;40.55;28.11;101189.72;5054864;28;20025;-60
2021/06/19 09:43:11;;;;;;;1.00;1.00;;;;;;;40.67;27.53;101189.97;5054334;28;20447;-59
2021/06/19 09:45:38;;;;;;;1.92;1.00;;;;;;;40.34;27.56;101194.19;5055054;28;20389;-60
2021/06/19 09:48:04;;;;;;;1.65;1.00;;;;;;;40.29;28.32;101191.47;5054794;28;20466;-60
2021/06/19 09:50:30;;;;;;;1.77;1.02;;;;;;;40.37;27.15;101190.69;5036759;28;20036;-60
2021/06/19 09:52:55;;;;;;;1.25;1.00;;;;;;;40.73;27.44;101181.41;5054136;28;20029;-59
2021/06/19 09:55:21;;;;;;;1.10;1.00;;;;;;;40.98;27.27;101186.34;5053988;28;20061;-59
2021/06/19 09:57:48;;;;;;;1.38;1.15;;;;;;;40.98;27.40;101187.19;5053096;28;20373;-60
2021/06/19 10:00:18;;;;;;;1.00;0.90;;;;;;;41.14;27.42;101190.38;5036783;28;20021;-59
2021/06/19 10:02:45;;;;;;;3.08;1.38;;;;;;;41.45;26.58;101179.09;5054490;28;20028;-59
2021/06/19 10:05:11;;;;;;;2.13;1.08;;;;;;;41.55;26.96;101176.78;5036432;28;20025;-61
2021/06/19 10:07:36;;;;;;;36.35;34.65;;;;;;;42.16;26.39;101177.75;5054351;28;20063;-60
2021/06/19 10:10:10;;;;;;;1999.90;999.90;;;;;;;42.75;25.83;101162.72;5036108;28;20110;-61
2021/06/19 10:12:38;;;;;;;68.13;65.05;;;;;;;43.50;25.52;101168.72;5054059;28;20099;-60
2021/06/19 10:15:05;;;;;;;1.23;1.13;;;;;;;44.36;24.46;101164.06;5053715;28;20036;-60
2021/06/19 10:17:44;;;;;;;1.75;1.20;;;;;;;45.26;23.98;101160.34;5053932;28;20162;-61
2021/06/19 10:20:13;;;;;;;1.58;1.48;;;;;;;45.66;23.48;101147.13;5054178;28;20025;-59
2021/06/19 10:22:40;;;;;;;2.55;1.35;;;;;;;45.37;23.65;101147.41;5054209;28;20456;-60
2021/06/19 10:25:11;;;;;;;1.90;1.10;;;;;;;44.50;24.44;101132.66;5053177;28;20040;-61
2021/06/19 10:27:43;;;;;;;1.13;1.02;;;;;;;44.20;24.19;101136.81;5054482;28;20041;-61
2021/06/19 10:30:11;;;;;;;3.22;1.60;;;;;;;44.09;24.14;101138.34;5036032;28;20461;-60
2021/06/19 10:32:50;;;;;;;1.88;1.75;;;;;;;44.10;24.27;101137.19;5053770;28;20021;-60
2021/06/19 10:35:21;;;;;;;1.73;1.48;;;;;;;44.14;24.27;101129.72;5053390;28;20036;-60
2021/06/19 10:37:48;;;;;;;1.42;1.35;;;;;;;44.11;24.07;101130.38;5035931;28;20528;-61
2021/06/19 10:40:23;;;;;;;1.17;1.08;;;;;;;43.97;24.40;101130.66;5035501;28;20100;-60
2021/06/19 10:42:50;;;;;;;1.83;1.50;;;;;;;44.03;24.45;101117.97;5053754;28;20024;-60
2021/06/19 10:45:24;;;;;;;2.25;1.33;;;;;;;44.02;23.94;101116.31;5053614;28;20052;-61
2021/06/19 10:48:09;;;;;;;1.10;1.10;;;;;;;43.64;24.60;101115.63;5053791;28;20039;-59
2021/06/19 10:50:39;;;;;;;1.67;1.30;;;;;;;43.49;24.53;101105.78;5035882;28;20067;-61
2021/06/19 10:53:13;;;;;;;3.33;1.07;;;;;;;43.36;24.75;101109.72;5053352;28;20048;-60
2021/06/19 10:55:42;;;;;;;5.00;1.38;;;;;;;42.99;24.96;101102.94;5054041;28;20048;-60
2021/06/19 10:58:39;;;;;;;1.33;1.23;;;;;;;42.67;25.29;101104.38;5053471;28;20056;-60
2021/06/19 11:01:05;;;;;;;2.72;1.48;;;;;;;42.90;25.05;101114.22;5052812;28;20041;-60
2021/06/19 11:03:43;;;;;;;2.45;1.35;;;;;;;43.19;24.83;101115.44;5035743;28;20504;-59
2021/06/19 11:06:29;;;;;;;1.52;1.10;;;;;;;43.42;24.60;101106.31;5035363;28;20056;-60
2021/06/19 11:09:15;;;;;;;1.63;1.00;;;;;;;43.90;24.04;101100.16;5057520;28;20116;-61
2021/06/19 11:12:04;;;;;;;2.50;1.35;;;;;;;43.69;24.05;101090.84;5054781;28;20378;-60
2021/06/19 11:14:51;;;;;;;5.78;2.10;;;;;;;44.19;23.72;101075.78;5056160;28;20032;-61
2021/06/19 11:17:23;;;;;;;2.25;1.30;;;;;;;44.27;23.46;101072.03;5043564;28;20071;-60
2021/06/19 11:19:51;;;;;;;2.13;0.80;;;;;;;44.43;24.06;101076.66;5056748;28;20037;-61
2021/06/19 11:22:30;;;;;;;3.60;1.10;;;;;;;44.44;23.79;101071.84;5056806;28;20029;-60
2021/06/19 11:25:29;;;;;;;1.27;1.17;;;;;;;44.01;24.21;101077.94;5057080;28;20492;-60
2021/06/19 11:28:19;;;;;;;2.40;1.38;;;;;;;43.97;23.89;101068.53;5056749;28;20025;-61